Time;durP1;ratioP1;P1;durP2;ratioP2;P2;SDS_P1;SDS_P2;PMS_P1;PMS_P2;Temp;Humidity;BMP_temperature;BMP_pressure;BME280_temperature;BME280_humidity;BME280_pressure;Samples;Min_cycle;Max_cycle;Signal;HPM_P1;HPM_P2
2021/06/16 00:02:21;;;;;;;;;20.25;20.25;;;;;;;;5003453;28;8846;-85
2021/06/16 00:04:48;;;;;;;;;20.50;20.50;;;;;;;;5007126;28;8900;-78
2021/06/16 00:07:16;;;;;;;;;16.50;16.50;;;;;;;;5005343;28;8864;-81
2021/06/16 00:09:45;;;;;;;;;20.00;18.00;;;;;;;;5007497;28;9557;-78
2021/06/16 00:12:13;;;;;;;;;22.50;22.50;;;;;;;;5003675;28;8863;-84
2021/06/16 00:14:40;;;;;;;;;21.25;21.00;;;;;;;;5003074;28;8872;-76
2021/06/16 00:17:08;;;;;;;;;22.75;22.75;;;;;;;;5002693;28;8871;-81
2021/06/16 00:19:35;;;;;;;;;18.00;18.00;;;;;;;;5004935;28;8903;-85
2021/06/16 00:22:03;;;;;;;;;23.75;22.25;;;;;;;;5004937;28;8922;-84
2021/06/16 00:24:30;;;;;;;;;21.50;21.00;;;;;;;;5001900;28;8868;-83
2021/06/16 00:26:59;;;;;;;;;18.00;18.00;;;;;;;;4998572;28;8879;-87
2021/06/16 00:29:27;;;;;;;;;20.00;18.25;;;;;;;;5003542;28;8848;-84
2021/06/16 00:31:54;;;;;;;;;19.50;19.50;;;;;;;;4995454;28;8833;-80
2021/06/16 00:34:21;;;;;;;;;22.50;22.50;;;;;;;;5003543;28;8860;-82
2021/06/16 00:36:49;;;;;;;;;22.75;21.75;;;;;;;;5003153;28;9023;-83
2021/06/16 00:39:16;;;;;;;;;22.00;22.00;;;;;;;;5001326;28;9007;-85
2021/06/16 00:41:44;;;;;;;;;21.75;20.25;;;;;;;;5003203;28;8868;-77
2021/06/16 00:44:13;;;;;;;;;24.00;23.75;;;;;;;;5011135;28;8872;-75
2021/06/16 00:46:40;;;;;;;;;21.25;21.25;;;;;;;;5012655;28;8868;-75
2021/06/16 00:49:08;;;;;;;;;23.50;21.50;;;;;;;;5009389;28;9640;-75
2021/06/16 00:51:35;;;;;;;;;21.00;21.00;;;;;;;;5010615;28;8872;-80
2021/06/16 00:54:09;;;;;;;;;24.50;21.50;;;;;;;;5008603;28;8872;-76
2021/06/16 00:56:37;;;;;;;;;21.50;19.75;;;;;;;;5019354;28;8879;-82
2021/06/16 00:59:04;;;;;;;;;22.25;22.25;;;;;;;;5009137;28;8874;-79
2021/06/16 01:01:34;;;;;;;;;25.75;24.25;;;;;;;;5011885;28;8808;-81
2021/06/16 01:04:09;;;;;;;;;26.75;25.25;;;;;;;;5014642;28;8900;-81
2021/06/16 01:06:40;;;;;;;;;23.00;21.75;;;;;;;;5009752;28;8876;-81
2021/06/16 01:09:13;;;;;;;;;20.75;20.75;;;;;;;;5007788;28;9010;-85
2021/06/16 01:12:01;;;;;;;;;19.00;19.00;;;;;;;;5007273;28;8982;-84
2021/06/16 01:14:35;;;;;;;;;21.50;21.50;;;;;;;;5010504;28;8894;-83
2021/06/16 01:17:07;;;;;;;;;22.75;22.75;;;;;;;;5016725;28;8848;-85
2021/06/16 01:19:53;;;;;;;;;24.00;22.75;;;;;;;;5009404;28;8892;-84
2021/06/16 01:22:39;;;;;;;;;20.25;18.50;;;;;;;;5014632;28;8876;-85
2021/06/16 01:25:09;;;;;;;;;22.00;22.00;;;;;;;;5008885;28;8872;-80
2021/06/16 01:27:38;;;;;;;;;23.00;23.00;;;;;;;;5011857;28;8870;-83
2021/06/16 01:30:07;;;;;;;;;26.25;23.75;;;;;;;;5011696;28;8856;-83
2021/06/16 01:32:36;;;;;;;;;26.50;24.00;;;;;;;;5009631;28;9009;-84
2021/06/16 01:35:03;;;;;;;;;26.75;25.00;;;;;;;;5010592;28;8898;-84
2021/06/16 01:37:31;;;;;;;;;22.00;22.00;;;;;;;;5017300;28;8879;-84
2021/06/16 01:40:00;;;;;;;;;24.00;20.75;;;;;;;;5008721;28;8880;-83
2021/06/16 01:42:28;;;;;;;;;22.50;20.75;;;;;;;;5012844;28;8908;-79
2021/06/16 01:44:58;;;;;;;;;25.25;25.25;;;;;;;;5009164;28;8969;-79
2021/06/16 01:47:25;;;;;;;;;25.50;25.50;;;;;;;;5009848;28;8983;-80
2021/06/16 01:49:55;;;;;;;;;22.50;22.50;;;;;;;;5010763;28;8894;-83
2021/06/16 01:52:24;;;;;;;;;21.00;19.00;;;;;;;;5026683;28;8954;-78
2021/06/16 01:54:51;;;;;;;;;23.25;23.25;;;;;;;;5007375;28;8911;-76
2021/06/16 01:57:19;;;;;;;;;21.00;21.00;;;;;;;;5013968;28;8859;-84
2021/06/16 01:59:47;;;;;;;;;21.00;21.00;;;;;;;;5006376;28;8876;-83
2021/06/16 02:02:16;;;;;;;;;21.00;19.25;;;;;;;;5006252;28;9715;-84
2021/06/16 02:04:43;;;;;;;;;21.50;21.50;;;;;;;;5006264;28;9721;-86
2021/06/16 02:07:14;;;;;;;;;25.25;23.50;;;;;;;;5005802;28;8856;-86
2021/06/16 02:09:42;;;;;;;;;20.50;20.50;;;;;;;;5007176;28;8870;-83
2021/06/16 02:12:12;;;;;;;;;21.50;21.50;;;;;;;;5006958;28;8864;-86
2021/06/16 02:14:41;;;;;;;;;22.50;21.75;;;;;;;;5007527;28;9649;-86
2021/06/16 02:17:11;;;;;;;;;22.00;22.00;;;;;;;;5006339;28;8875;-87
2021/06/16 02:19:42;;;;;;;;;19.75;19.50;;;;;;;;5004687;28;8991;-83
2021/06/16 02:22:10;;;;;;;;;16.25;15.75;;;;;;;;5006190;28;8864;-82
2021/06/16 02:24:38;;;;;;;;;24.50;24.00;;;;;;;;5013936;28;8955;-85
2021/06/16 02:27:06;;;;;;;;;18.25;18.25;;;;;;;;5014299;28;8896;-82
2021/06/16 02:29:34;;;;;;;;;21.50;19.75;;;;;;;;5004775;28;8864;-87
2021/06/16 02:32:01;;;;;;;;;22.50;22.50;;;;;;;;5005499;28;8844;-86
2021/06/16 02:34:30;;;;;;;;;25.50;25.50;;;;;;;;5017544;28;9002;-87
2021/06/16 02:37:04;;;;;;;;;23.25;19.25;;;;;;;;5010933;28;8888;-86
2021/06/16 02:39:36;;;;;;;;;16.75;16.75;;;;;;;;5005012;28;8879;-84
2021/06/16 02:42:06;;;;;;;;;24.75;22.00;;;;;;;;5008046;28;8860;-83
2021/06/16 02:44:34;;;;;;;;;20.25;19.75;;;;;;;;5007133;28;8934;-81
2021/06/16 02:47:02;;;;;;;;;26.25;26.25;;;;;;;;5004776;28;8890;-82
2021/06/16 02:49:31;;;;;;;;;25.50;24.50;;;;;;;;5006419;28;8898;-80
2021/06/16 02:52:01;;;;;;;;;22.00;22.00;;;;;;;;5005661;28;9058;-87
2021/06/16 02:54:30;;;;;;;;;26.25;25.50;;;;;;;;5006135;28;8893;-84
2021/06/16 02:56:59;;;;;;;;;26.00;24.25;;;;;;;;5005585;28;8867;-78
2021/06/16 02:59:30;;;;;;;;;26.50;25.75;;;;;;;;5004474;28;8864;-83
2021/06/16 03:01:58;;;;;;;;;24.75;23.00;;;;;;;;5007203;28;8806;-85
2021/06/16 03:04:26;;;;;;;;;22.25;19.75;;;;;;;;5001422;28;8879;-75
2021/06/16 03:06:54;;;;;;;;;25.00;21.25;;;;;;;;5001754;28;8860;-83
2021/06/16 03:09:24;;;;;;;;;26.50;24.50;;;;;;;;5004844;28;8890;-87
2021/06/16 03:11:52;;;;;;;;;26.50;26.50;;;;;;;;5004924;28;8880;-83
2021/06/16 03:14:23;;;;;;;;;26.00;25.25;;;;;;;;5006905;28;8881;-83
2021/06/16 03:16:51;;;;;;;;;26.75;26.75;;;;;;;;5006401;28;8852;-86
2021/06/16 03:19:18;;;;;;;;;28.75;25.50;;;;;;;;5003733;28;8878;-85
2021/06/16 03:21:46;;;;;;;;;23.25;23.25;;;;;;;;5002198;28;8892;-83
2021/06/16 03:24:14;;;;;;;;;26.75;26.50;;;;;;;;5003620;28;8872;-86
2021/06/16 03:26:44;;;;;;;;;27.00;26.25;;;;;;;;4999130;28;8990;-79
2021/06/16 03:29:11;;;;;;;;;25.50;25.50;;;;;;;;5004896;28;8898;-79
2021/06/16 03:31:41;;;;;;;;;22.00;22.00;;;;;;;;5010947;28;8805;-85
2021/06/16 03:34:08;;;;;;;;;22.00;21.00;;;;;;;;5005209;28;8868;-84
2021/06/16 03:36:36;;;;;;;;;20.25;20.00;;;;;;;;5006898;28;8884;-82
2021/06/16 03:39:05;;;;;;;;;26.00;24.25;;;;;;;;5003591;28;8979;-83
2021/06/16 03:41:32;;;;;;;;;22.00;22.00;;;;;;;;5005429;28;8990;-83
2021/06/16 03:44:02;;;;;;;;;25.00;24.25;;;;;;;;5003733;28;8872;-78
2021/06/16 03:46:30;;;;;;;;;27.75;25.50;;;;;;;;5003566;28;8884;-76
2021/06/16 03:48:58;;;;;;;;;24.25;23.75;;;;;;;;5003208;28;8894;-75
2021/06/16 03:51:27;;;;;;;;;24.00;24.00;;;;;;;;5004017;28;8856;-85
2021/06/16 03:53:55;;;;;;;;;24.50;22.50;;;;;;;;5005206;28;8949;-80
2021/06/16 03:56:23;;;;;;;;;24.00;22.50;;;;;;;;5005054;28;8895;-78
2021/06/16 03:58:51;;;;;;;;;19.50;19.50;;;;;;;;5014591;28;8869;-81
2021/06/16 04:01:20;;;;;;;;;24.50;24.50;;;;;;;;5004946;28;8833;-81
2021/06/16 04:03:48;;;;;;;;;26.25;26.25;;;;;;;;5003960;28;8868;-82
2021/06/16 04:06:16;;;;;;;;;18.25;18.25;;;;;;;;5003690;28;8864;-74
2021/06/16 04:08:44;;;;;;;;;21.50;21.50;;;;;;;;5003928;28;8898;-77
2021/06/16 04:11:12;;;;;;;;;25.50;23.75;;;;;;;;5003992;28;8872;-82
2021/06/16 04:13:39;;;;;;;;;25.25;22.00;;;;;;;;5000323;28;8917;-80
2021/06/16 04:16:07;;;;;;;;;22.75;22.75;;;;;;;;5000199;28;8982;-79
2021/06/16 04:18:38;;;;;;;;;23.75;22.50;;;;;;;;5005304;28;8890;-86
2021/06/16 04:21:06;;;;;;;;;24.25;23.50;;;;;;;;5007574;28;8866;-85
2021/06/16 04:23:34;;;;;;;;;27.50;25.25;;;;;;;;5003790;28;8872;-92
2021/06/16 04:26:01;;;;;;;;;24.00;24.00;;;;;;;;5005709;28;8869;-86
2021/06/16 04:28:28;;;;;;;;;30.25;27.50;;;;;;;;5005549;28;8886;-87
2021/06/16 04:30:56;;;;;;;;;22.00;22.00;;;;;;;;5004155;28;8850;-84
2021/06/16 04:33:23;;;;;;;;;24.50;24.50;;;;;;;;5003828;28;9637;-84
2021/06/16 04:35:52;;;;;;;;;25.00;23.50;;;;;;;;5005468;28;8860;-86
2021/06/16 04:38:19;;;;;;;;;23.50;22.50;;;;;;;;5007918;28;8880;-90
2021/06/16 04:40:46;;;;;;;;;27.25;25.75;;;;;;;;5003761;28;8890;-89
2021/06/16 04:43:14;;;;;;;;;22.75;22.75;;;;;;;;5003633;28;8843;-90
2021/06/16 04:45:41;;;;;;;;;24.75;24.75;;;;;;;;5004504;28;9002;-86
2021/06/16 04:48:09;;;;;;;;;29.50;26.50;;;;;;;;5004576;28;8883;-80
2021/06/16 04:50:37;;;;;;;;;28.50;25.75;;;;;;;;5003705;28;8863;-81
2021/06/16 04:53:06;;;;;;;;;23.25;23.25;;;;;;;;5004410;28;8898;-89
2021/06/16 04:55:33;;;;;;;;;27.25;26.75;;;;;;;;5006981;28;8898;-85
2021/06/16 04:58:01;;;;;;;;;26.00;26.00;;;;;;;;5003949;28;8904;-87
2021/06/16 05:00:28;;;;;;;;;25.75;25.75;;;;;;;;5003543;28;8785;-84
2021/06/16 05:02:56;;;;;;;;;27.75;26.00;;;;;;;;5003806;28;8888;-81
2021/06/16 05:05:23;;;;;;;;;30.25;28.25;;;;;;;;5006575;28;8852;-80
2021/06/16 05:07:50;;;;;;;;;27.00;27.00;;;;;;;;5004010;28;9226;-79
2021/06/16 05:10:19;;;;;;;;;26.75;26.75;;;;;;;;5003769;28;8886;-83
2021/06/16 05:12:46;;;;;;;;;23.50;23.50;;;;;;;;5005382;28;8974;-81
2021/06/16 05:15:15;;;;;;;;;31.25;29.00;;;;;;;;4999499;28;9733;-81
2021/06/16 05:17:42;;;;;;;;;31.75;30.00;;;;;;;;5003999;28;9026;-80
2021/06/16 05:20:12;;;;;;;;;28.75;28.75;;;;;;;;5002348;28;9011;-80
2021/06/16 05:22:39;;;;;;;;;29.75;27.75;;;;;;;;5003784;28;8903;-82
2021/06/16 05:25:10;;;;;;;;;31.50;31.50;;;;;;;;5010604;28;8856;-81
2021/06/16 05:27:40;;;;;;;;;34.25;31.25;;;;;;;;5011069;28;8857;-79
2021/06/16 05:30:08;;;;;;;;;29.50;29.25;;;;;;;;5006576;28;8852;-84
2021/06/16 05:32:36;;;;;;;;;34.50;32.75;;;;;;;;5004547;28;8867;-84
2021/06/16 05:35:04;;;;;;;;;26.50;26.50;;;;;;;;5007977;28;8872;-84
2021/06/16 05:37:32;;;;;;;;;37.50;34.00;;;;;;;;5006435;28;8860;-77
2021/06/16 05:39:59;;;;;;;;;31.50;31.50;;;;;;;;5004039;28;8872;-79
2021/06/16 05:42:26;;;;;;;;;33.25;30.25;;;;;;;;5007279;28;8986;-81
2021/06/16 05:44:55;;;;;;;;;35.25;32.50;;;;;;;;5006227;28;8880;-78
2021/06/16 05:47:22;;;;;;;;;29.75;28.00;;;;;;;;4997361;28;8848;-82
2021/06/16 05:49:50;;;;;;;;;32.75;30.75;;;;;;;;5005172;28;8876;-81
2021/06/16 05:52:17;;;;;;;;;28.50;28.00;;;;;;;;5001887;28;8871;-83
2021/06/16 05:54:44;;;;;;;;;31.00;28.25;;;;;;;;5003219;28;8887;-76
2021/06/16 05:57:12;;;;;;;;;28.25;26.75;;;;;;;;5007688;28;8902;-82
2021/06/16 05:59:39;;;;;;;;;27.25;27.25;;;;;;;;5007195;28;8885;-81
2021/06/16 06:02:09;;;;;;;;;27.00;24.00;;;;;;;;5005768;28;8841;-84
2021/06/16 06:04:36;;;;;;;;;31.00;28.50;;;;;;;;5006683;28;8852;-81
2021/06/16 06:07:05;;;;;;;;;29.50;26.50;;;;;;;;4999655;28;8886;-78
2021/06/16 06:09:32;;;;;;;;;24.50;24.50;;;;;;;;5002735;28;8875;-81
2021/06/16 06:12:00;;;;;;;;;34.00;30.50;;;;;;;;5003751;28;8904;-80
2021/06/16 06:14:27;;;;;;;;;27.25;26.75;;;;;;;;5007438;28;8860;-83
2021/06/16 06:16:54;;;;;;;;;29.25;29.25;;;;;;;;5006398;28;8887;-84
2021/06/16 06:19:23;;;;;;;;;32.25;30.00;;;;;;;;5000751;28;8884;-74
2021/06/16 06:21:50;;;;;;;;;31.50;28.50;;;;;;;;5006736;28;8882;-82
2021/06/16 06:24:17;;;;;;;;;25.00;25.00;;;;;;;;5005652;28;8864;-82
2021/06/16 06:26:45;;;;;;;;;31.75;30.75;;;;;;;;5007618;28;9044;-81
2021/06/16 06:29:12;;;;;;;;;33.50;31.50;;;;;;;;5004183;28;8876;-82
2021/06/16 06:31:39;;;;;;;;;26.75;26.75;;;;;;;;5005603;28;8825;-82
2021/06/16 06:34:06;;;;;;;;;29.50;29.25;;;;;;;;5004940;28;8857;-77
2021/06/16 06:36:35;;;;;;;;;33.75;30.00;;;;;;;;5006427;28;8884;-84
2021/06/16 06:39:03;;;;;;;;;24.75;24.00;;;;;;;;5006274;28;8983;-80
2021/06/16 06:41:30;;;;;;;;;26.75;26.50;;;;;;;;4998937;28;8929;-76
2021/06/16 06:43:58;;;;;;;;;26.00;22.50;;;;;;;;5006013;28;8884;-77
2021/06/16 06:46:25;;;;;;;;;29.00;29.00;;;;;;;;4998264;28;8876;-78
2021/06/16 06:48:52;;;;;;;;;35.00;31.25;;;;;;;;5003008;28;8884;-77
2021/06/16 06:51:20;;;;;;;;;28.75;28.25;;;;;;;;4998714;28;8871;-77
2021/06/16 06:53:49;;;;;;;;;27.80;27.60;;;;;;;;5006376;28;8890;-83
2021/06/16 06:56:16;;;;;;;;;28.80;26.00;;;;;;;;5004901;28;8867;-82
2021/06/16 06:58:43;;;;;;;;;26.20;26.20;;;;;;;;4997062;28;8884;-79
2021/06/16 07:01:10;;;;;;;;;28.40;27.20;;;;;;;;4999077;28;8819;-83
2021/06/16 07:03:38;;;;;;;;;29.40;29.20;;;;;;;;4998303;28;8926;-84
2021/06/16 07:06:06;;;;;;;;;26.60;25.80;;;;;;;;5000780;28;8905;-81
2021/06/16 07:08:33;;;;;;;;;28.60;28.60;;;;;;;;4997469;28;8867;-80
2021/06/16 07:11:02;;;;;;;;;23.80;23.80;;;;;;;;5000350;28;8894;-85
2021/06/16 07:13:30;;;;;;;;;27.60;26.20;;;;;;;;5001160;28;8884;-81
2021/06/16 07:15:57;;;;;;;;;28.60;28.00;;;;;;;;5003051;28;8876;-79
2021/06/16 07:18:25;;;;;;;;;26.80;25.80;;;;;;;;5000061;28;8979;-84
2021/06/16 07:20:52;;;;;;;;;27.60;27.60;;;;;;;;5004164;28;8867;-87
2021/06/16 07:23:19;;;;;;;;;26.00;26.00;;;;;;;;5005507;28;8935;-88
2021/06/16 07:25:47;;;;;;;;;28.80;28.80;;;;;;;;5001864;28;8864;-86
2021/06/16 07:28:16;;;;;;;;;25.80;24.20;;;;;;;;5001065;28;8868;-87
2021/06/16 07:30:43;;;;;;;;;31.80;28.40;;;;;;;;5004825;28;8859;-82
2021/06/16 07:33:11;;;;;;;;;27.60;27.20;;;;;;;;5005345;28;8864;-89
2021/06/16 07:35:38;;;;;;;;;23.80;22.80;;;;;;;;5010729;28;8868;-76
2021/06/16 07:38:05;;;;;;;;;30.40;26.80;;;;;;;;5012942;28;9019;-86
2021/06/16 07:40:33;;;;;;;;;23.80;22.00;;;;;;;;5016852;28;8837;-94
2021/06/16 07:43:00;;;;;;;;;27.60;27.00;;;;;;;;5016664;28;8894;-95
2021/06/16 07:45:30;;;;;;;;;22.60;22.60;;;;;;;;5006098;28;8902;-82
2021/06/16 07:47:57;;;;;;;;;24.00;24.00;;;;;;;;5025508;28;8844;-85
2021/06/16 07:50:27;;;;;;;;;26.80;25.00;;;;;;;;5008285;28;8875;-81
2021/06/16 07:52:54;;;;;;;;;25.20;25.00;;;;;;;;5009687;28;8895;-90
2021/06/16 07:55:23;;;;;;;;;23.00;21.20;;;;;;;;5007862;28;8891;-94
2021/06/16 07:57:51;;;;;;;;;25.00;23.40;;;;;;;;5015337;28;8860;-96
2021/06/16 08:00:19;;;;;;;;;23.60;22.20;;;;;;;;5008592;28;9006;-91
2021/06/16 08:02:48;;;;;;;;;24.80;23.60;;;;;;;;5021116;28;8868;-88
2021/06/16 08:05:16;;;;;;;;;22.60;19.40;;;;;;;;5017776;28;8998;-79
2021/06/16 08:07:44;;;;;;;;;20.20;19.20;;;;;;;;5011527;28;8991;-85
2021/06/16 08:10:12;;;;;;;;;25.00;23.20;;;;;;;;5008988;28;8857;-82
2021/06/16 08:12:39;;;;;;;;;22.80;21.40;;;;;;;;5006903;28;8994;-84
2021/06/16 08:15:09;;;;;;;;;20.20;20.20;;;;;;;;5006336;28;8864;-95
2021/06/16 08:17:36;;;;;;;;;20.60;20.60;;;;;;;;4977012;28;8906;-84
2021/06/16 08:20:06;;;;;;;;;23.20;21.20;;;;;;;;4999973;28;9630;-87
2021/06/16 08:22:34;;;;;;;;;19.20;19.20;;;;;;;;5001865;28;8917;-94
2021/06/16 08:25:03;;;;;;;;;20.80;20.20;;;;;;;;5006503;28;9692;-93
2021/06/16 08:27:30;;;;;;;;;22.00;22.00;;;;;;;;5003314;28;8890;-92
2021/06/16 08:29:58;;;;;;;;;25.00;21.40;;;;;;;;5003317;28;8998;-88
2021/06/16 08:32:25;;;;;;;;;21.00;19.80;;;;;;;;5003160;28;8823;-89
2021/06/16 08:34:52;;;;;;;;;19.60;16.40;;;;;;;;4998300;28;8896;-90
2021/06/16 08:37:21;;;;;;;;;16.60;16.60;;;;;;;;4998156;28;8886;-88
2021/06/16 08:39:49;;;;;;;;;23.80;22.60;;;;;;;;5005476;28;8857;-90
2021/06/16 08:42:16;;;;;;;;;19.80;18.20;;;;;;;;5004679;28;9657;-92
2021/06/16 08:44:44;;;;;;;;;17.20;16.40;;;;;;;;5003070;28;8876;-95
2021/06/16 08:47:11;;;;;;;;;18.80;18.80;;;;;;;;5004937;28;8888;-96
2021/06/16 08:49:39;;;;;;;;;15.60;15.40;;;;;;;;5007654;28;8994;-92
2021/06/16 08:52:06;;;;;;;;;17.00;15.40;;;;;;;;5007229;28;8954;-78
2021/06/16 08:54:36;;;;;;;;;20.60;17.00;;;;;;;;5000717;28;9030;-88
2021/06/16 08:57:04;;;;;;;;;17.60;16.00;;;;;;;;5002012;28;8884;-86
2021/06/16 08:59:31;;;;;;;;;18.40;18.40;;;;;;;;5000691;28;9029;-81
2021/06/16 09:01:59;;;;;;;;;15.80;14.60;;;;;;;;5002838;28;8821;-89
2021/06/16 09:04:46;;;;;;;;;18.40;15.80;;;;;;;;5004418;28;8836;-83
2021/06/16 09:07:14;;;;;;;;;17.40;14.20;;;;;;;;5003340;28;8876;-85
2021/06/16 09:09:43;;;;;;;;;13.60;13.60;;;;;;;;4999497;28;8886;-85
2021/06/16 09:12:12;;;;;;;;;19.20;18.20;;;;;;;;5004322;28;8986;-85
2021/06/16 09:14:53;;;;;;;;;20.60;18.80;;;;;;;;4995546;28;8896;-84
2021/06/16 09:17:23;;;;;;;;;17.80;15.00;;;;;;;;5005353;28;8978;-84
2021/06/16 09:19:54;;;;;;;;;14.80;14.80;;;;;;;;5007521;28;8911;-84
2021/06/16 09:22:32;;;;;;;;;17.00;15.80;;;;;;;;5007292;28;8894;-83
2021/06/16 09:25:03;;;;;;;;;15.20;15.20;;;;;;;;5005775;28;8891;-84
2021/06/16 09:27:41;;;;;;;;;14.00;14.00;;;;;;;;5006014;28;8868;-84
2021/06/16 09:30:37;;;;;;;;;14.80;14.40;;;;;;;;5001742;28;8875;-83
2021/06/16 09:33:13;;;;;;;;;16.60;16.60;;;;;;;;5004446;28;8994;-83
2021/06/16 09:35:42;;;;;;;;;13.00;13.00;;;;;;;;5007887;28;9014;-84
2021/06/16 09:38:14;;;;;;;;;17.00;16.40;;;;;;;;5006707;28;8871;-84
2021/06/16 09:40:45;;;;;;;;;15.40;15.40;;;;;;;;5007646;28;8906;-82
2021/06/16 09:43:13;;;;;;;;;13.60;13.60;;;;;;;;5007662;28;8867;-82
2021/06/16 09:45:43;;;;;;;;;10.80;10.60;;;;;;;;5004108;28;8868;-83
2021/06/16 09:48:21;;;;;;;;;11.80;10.20;;;;;;;;4997654;28;8888;-83
2021/06/16 09:50:50;;;;;;;;;14.00;12.60;;;;;;;;5006138;28;8899;-84
2021/06/16 09:53:17;;;;;;;;;8.80;8.80;;;;;;;;5003915;28;8896;-84
2021/06/16 09:55:46;;;;;;;;;9.20;9.20;;;;;;;;5010732;28;9608;-83
2021/06/16 09:58:17;;;;;;;;;14.00;12.40;;;;;;;;5010129;28;8864;-84
2021/06/16 10:00:47;;;;;;;;;11.40;9.80;;;;;;;;4998988;28;8841;-82
2021/06/16 10:03:17;;;;;;;;;11.00;11.00;;;;;;;;5004848;28;8882;-82
2021/06/16 10:06:07;;;;;;;;;9.00;9.00;;;;;;;;5006359;28;9003;-84
2021/06/16 10:08:36;;;;;;;;;9.20;9.20;;;;;;;;5001896;28;8899;-85
2021/06/16 10:11:06;;;;;;;;;8.60;8.60;;;;;;;;5007848;28;8879;-83
2021/06/16 10:13:34;;;;;;;;;10.20;9.40;;;;;;;;5002310;28;8905;-83
2021/06/16 10:16:04;;;;;;;;;11.00;11.00;;;;;;;;5000366;28;8884;-84
2021/06/16 10:18:34;;;;;;;;;9.00;9.00;;;;;;;;4993091;28;8967;-84
2021/06/16 10:21:01;;;;;;;;;10.60;10.60;;;;;;;;4999470;28;9267;-84
2021/06/16 10:23:29;;;;;;;;;11.80;10.00;;;;;;;;4996151;28;8963;-85
2021/06/16 10:26:01;;;;;;;;;9.60;8.00;;;;;;;;5001102;28;8880;-84
2021/06/16 10:28:36;;;;;;;;;9.80;9.80;;;;;;;;5001730;28;8872;-85
2021/06/16 10:31:04;;;;;;;;;11.00;9.80;;;;;;;;5001335;28;8831;-85
2021/06/16 10:33:34;;;;;;;;;10.40;10.40;;;;;;;;5002209;28;8879;-85
2021/06/16 10:36:10;;;;;;;;;8.60;8.60;;;;;;;;5004579;28;8895;-83
2021/06/16 10:38:38;;;;;;;;;12.40;12.40;;;;;;;;5005656;28;8900;-85
2021/06/16 10:41:05;;;;;;;;;12.20;12.20;;;;;;;;5000008;28;8995;-82
2021/06/16 10:43:34;;;;;;;;;10.60;10.60;;;;;;;;5005065;28;8894;-84
2021/06/16 10:46:13;;;;;;;;;11.40;11.40;;;;;;;;5006855;28;9016;-86
2021/06/16 10:48:56;;;;;;;;;7.60;7.60;;;;;;;;5007452;28;8896;-85
2021/06/16 10:51:35;;;;;;;;;12.80;10.80;;;;;;;;5007890;28;8893;-84
2021/06/16 10:54:28;;;;;;;;;13.00;11.20;;;;;;;;5006674;28;8888;-84
2021/06/16 10:56:59;;;;;;;;;11.40;11.40;;;;;;;;4999098;28;8868;-84
2021/06/16 11:00:02;;;;;;;;;9.40;9.40;;;;;;;;4992148;28;8883;-85
2021/06/16 11:03:04;;;;;;;;;7.40;7.40;;;;;;;;5000840;28;8817;-83
2021/06/16 11:05:44;;;;;;;;;8.00;8.00;;;;;;;;4985351;28;8851;-85
2021/06/16 11:08:26;;;;;;;;;9.00;9.00;;;;;;;;4986283;28;8973;-85
2021/06/16 11:10:56;;;;;;;;;10.20;10.20;;;;;;;;5000928;28;8990;-84
2021/06/16 11:13:37;;;;;;;;;10.40;8.80;;;;;;;;5008291;28;8868;-85
2021/06/16 11:16:39;;;;;;;;;11.60;11.20;;;;;;;;5009841;28;8864;-85
2021/06/16 11:19:27;;;;;;;;;9.60;9.60;;;;;;;;5026536;28;8888;-85
2021/06/16 11:21:56;;;;;;;;;9.80;9.80;;;;;;;;5005452;28;8870;-85
2021/06/16 11:24:24;;;;;;;;;8.00;8.00;;;;;;;;5005153;28;8856;-85
2021/06/16 11:26:52;;;;;;;;;10.40;10.40;;;;;;;;5004504;28;8882;-84
2021/06/16 11:29:56;;;;;;;;;10.00;10.00;;;;;;;;5010820;28;8892;-85
2021/06/16 11:32:25;;;;;;;;;12.40;10.60;;;;;;;;5003784;28;8817;-85
2021/06/16 11:34:56;;;;;;;;;9.00;9.00;;;;;;;;5000055;28;8987;-87
2021/06/16 11:37:58;;;;;;;;;8.60;8.60;;;;;;;;5005004;28;8848;-85
2021/06/16 11:40:27;;;;;;;;;10.20;10.20;;;;;;;;5001758;28;8882;-83
2021/06/16 11:42:54;;;;;;;;;10.20;10.20;;;;;;;;5007189;28;8891;-85
2021/06/16 11:45:21;;;;;;;;;10.20;10.00;;;;;;;;5004672;28;8868;-81
2021/06/16 11:47:55;;;;;;;;;7.80;7.80;;;;;;;;5003826;28;8958;-83
2021/06/16 11:50:29;;;;;;;;;12.20;10.40;;;;;;;;5007463;28;8872;-84
2021/06/16 11:52:58;;;;;;;;;10.80;10.80;;;;;;;;5004743;28;8982;-81
2021/06/16 11:55:47;;;;;;;;;9.20;9.20;;;;;;;;5005737;28;9715;-84
2021/06/16 11:58:28;;;;;;;;;9.00;9.00;;;;;;;;4992559;28;8886;-84
2021/06/16 12:01:11;;;;;;;;;9.60;9.60;;;;;;;;5007109;28;8780;-84
2021/06/16 12:03:42;;;;;;;;;9.00;9.00;;;;;;;;5005990;28;8887;-85
2021/06/16 12:06:11;;;;;;;;;6.60;6.60;;;;;;;;5009584;28;8897;-83
2021/06/16 12:08:39;;;;;;;;;9.60;9.40;;;;;;;;5006649;28;8872;-83
2021/06/16 12:11:23;;;;;;;;;10.00;8.80;;;;;;;;5001738;28;8847;-85
2021/06/16 12:13:58;;;;;;;;;9.60;9.60;;;;;;;;5005480;28;9018;-85
2021/06/16 12:16:27;;;;;;;;;9.20;7.60;;;;;;;;5007713;28;9245;-84
2021/06/16 12:19:11;;;;;;;;;8.20;8.20;;;;;;;;5006762;28;8876;-83
2021/06/16 12:21:39;;;;;;;;;8.00;8.00;;;;;;;;5005698;28;8946;-84
2021/06/16 12:24:20;;;;;;;;;7.00;7.00;;;;;;;;5006111;28;8856;-85
2021/06/16 12:27:05;;;;;;;;;9.20;8.20;;;;;;;;5006110;28;8871;-84
2021/06/16 12:29:33;;;;;;;;;8.00;8.00;;;;;;;;5006934;28;9002;-83
2021/06/16 12:32:03;;;;;;;;;8.80;8.80;;;;;;;;4977896;28;8801;-84
2021/06/16 12:34:34;;;;;;;;;6.40;6.40;;;;;;;;5006187;28;8894;-83
2021/06/16 12:37:08;;;;;;;;;8.40;8.40;;;;;;;;5005775;28;8845;-84
2021/06/16 12:39:35;;;;;;;;;8.20;8.20;;;;;;;;5005226;28;8896;-82
2021/06/16 12:42:06;;;;;;;;;8.00;8.00;;;;;;;;5006768;28;8978;-82
2021/06/16 12:44:38;;;;;;;;;12.20;9.00;;;;;;;;5001368;28;8876;-83
2021/06/16 12:47:07;;;;;;;;;10.40;10.40;;;;;;;;5004651;28;8907;-85
2021/06/16 12:49:38;;;;;;;;;8.80;8.00;;;;;;;;5001453;28;8864;-84
2021/06/16 12:52:08;;;;;;;;;7.40;7.40;;;;;;;;5002888;28;8872;-85
2021/06/16 12:54:37;;;;;;;;;7.00;7.00;;;;;;;;5004298;28;8979;-84
2021/06/16 12:57:07;;;;;;;;;8.40;8.40;;;;;;;;5004087;28;8892;-85
2021/06/16 12:59:36;;;;;;;;;8.40;8.40;;;;;;;;5003713;28;8888;-85
2021/06/16 13:02:04;;;;;;;;;9.40;8.00;;;;;;;;5001759;28;8942;-84
2021/06/16 13:04:52;;;;;;;;;8.20;8.20;;;;;;;;5005135;28;8863;-85
2021/06/16 13:07:20;;;;;;;;;9.60;9.60;;;;;;;;4992846;28;8938;-82
2021/06/16 13:10:02;;;;;;;;;7.00;7.00;;;;;;;;4994458;28;9672;-84
2021/06/16 13:12:30;;;;;;;;;7.60;7.60;;;;;;;;5013215;28;8874;-85
2021/06/16 13:15:02;;;;;;;;;9.60;7.80;;;;;;;;5002325;28;9043;-83
2021/06/16 13:17:40;;;;;;;;;8.00;8.00;;;;;;;;5003606;28;8865;-85
2021/06/16 13:20:11;;;;;;;;;7.80;7.00;;;;;;;;5004137;28;8971;-86
2021/06/16 13:22:42;;;;;;;;;7.00;7.00;;;;;;;;5004378;28;8868;-84
2021/06/16 13:25:10;;;;;;;;;8.00;8.00;;;;;;;;4998868;28;8875;-82
2021/06/16 13:27:48;;;;;;;;;8.00;8.00;;;;;;;;5003468;28;8864;-85
2021/06/16 13:30:22;;;;;;;;;4.00;4.00;;;;;;;;5004759;28;8990;-85
2021/06/16 13:32:49;;;;;;;;;6.40;6.40;;;;;;;;5001841;28;8906;-85
2021/06/16 13:35:18;;;;;;;;;6.40;6.40;;;;;;;;5002923;28;8876;-86
2021/06/16 13:37:46;;;;;;;;;6.40;6.40;;;;;;;;5003395;28;8868;-86
2021/06/16 13:40:15;;;;;;;;;9.60;8.40;;;;;;;;5003300;28;8876;-85
2021/06/16 13:42:48;;;;;;;;;6.00;6.00;;;;;;;;5004858;28;8890;-85
2021/06/16 13:45:16;;;;;;;;;8.20;8.20;;;;;;;;5002838;28;8876;-86
2021/06/16 13:47:43;;;;;;;;;8.60;8.60;;;;;;;;5006834;28;8891;-80
2021/06/16 13:50:11;;;;;;;;;7.80;7.80;;;;;;;;5016135;28;8984;-83
2021/06/16 13:52:40;;;;;;;;;6.80;6.80;;;;;;;;5005368;28;8884;-81
2021/06/16 13:55:09;;;;;;;;;7.00;7.00;;;;;;;;5006784;28;8999;-81
2021/06/16 13:57:37;;;;;;;;;9.40;8.00;;;;;;;;5005838;28;8864;-79
2021/06/16 14:00:07;;;;;;;;;6.40;4.80;;;;;;;;5003948;28;8883;-82
2021/06/16 14:02:35;;;;;;;;;10.20;9.00;;;;;;;;5001393;28;8899;-88
2021/06/16 14:05:02;;;;;;;;;7.00;7.00;;;;;;;;5000531;28;8864;-79
2021/06/16 14:07:30;;;;;;;;;8.80;8.80;;;;;;;;5004761;28;8947;-81
2021/06/16 14:09:58;;;;;;;;;8.40;8.40;;;;;;;;5000136;28;8872;-83
2021/06/16 14:12:26;;;;;;;;;8.00;8.00;;;;;;;;5006146;28;8860;-83
2021/06/16 14:14:53;;;;;;;;;8.20;8.20;;;;;;;;5005235;28;8883;-84
2021/06/16 14:17:20;;;;;;;;;8.80;8.80;;;;;;;;4994309;28;8876;-80
2021/06/16 14:19:48;;;;;;;;;7.80;7.80;;;;;;;;4991121;28;9000;-80
2021/06/16 14:22:15;;;;;;;;;6.00;6.00;;;;;;;;5005680;28;8904;-79
2021/06/16 14:24:42;;;;;;;;;8.20;8.20;;;;;;;;5005326;28;9633;-79
2021/06/16 14:27:11;;;;;;;;;8.00;7.20;;;;;;;;5005960;28;8896;-82
2021/06/16 14:29:38;;;;;;;;;7.00;7.00;;;;;;;;5006257;28;8860;-81
2021/06/16 14:32:06;;;;;;;;;8.00;8.00;;;;;;;;5005304;28;8852;-87
2021/06/16 14:34:34;;;;;;;;;7.40;7.40;;;;;;;;5006133;28;8852;-86
2021/06/16 14:37:01;;;;;;;;;8.40;7.60;;;;;;;;4994154;28;8864;-82
2021/06/16 14:39:29;;;;;;;;;7.40;7.40;;;;;;;;5005653;28;8871;-83
2021/06/16 14:41:56;;;;;;;;;7.60;7.60;;;;;;;;5001741;28;9026;-82
2021/06/16 14:44:25;;;;;;;;;9.00;7.80;;;;;;;;5006136;28;8910;-81
2021/06/16 14:46:53;;;;;;;;;9.00;9.00;;;;;;;;5004393;28;8856;-81
2021/06/16 14:49:20;;;;;;;;;9.20;7.80;;;;;;;;5005183;28;8898;-81
2021/06/16 14:51:48;;;;;;;;;8.80;8.80;;;;;;;;5005391;28;8868;-83
2021/06/16 14:54:16;;;;;;;;;6.40;6.40;;;;;;;;5003406;28;8883;-77